createdAt,value
2018-01-15T00:00:03.489Z,18.40
2018-01-15T00:02:31.148Z,18.85
2018-01-15T00:04:58.791Z,18.65
2018-01-15T00:07:26.414Z,19.23
2018-01-15T00:09:54.827Z,19.25
2018-01-15T00:12:22.572Z,19.73
2018-01-15T00:14:50.193Z,18.45
2018-01-15T00:17:17.841Z,19.05
2018-01-15T00:19:45.472Z,19.93
2018-01-15T00:22:13.800Z,18.77
2018-01-15T00:24:42.184Z,18.87
2018-01-15T00:27:09.875Z,19.50
2018-01-15T00:29:37.484Z,19.12
2018-01-15T00:32:05.155Z,19.48
2018-01-15T00:34:32.763Z,19.73
2018-01-15T00:37:00.425Z,18.73
2018-01-15T00:39:28.040Z,19.95
2018-01-15T00:41:55.673Z,18.90
2018-01-15T00:44:23.328Z,20.52
2018-01-15T00:46:50.951Z,19.40
2018-01-15T00:51:52.636Z,19.37
2018-01-15T00:54:20.275Z,20.20
2018-01-15T00:56:47.902Z,19.93
2018-01-15T00:59:15.547Z,18.98
2018-01-15T01:01:43.186Z,19.42
2018-01-15T01:04:10.833Z,19.93
2018-01-15T01:06:38.472Z,19.77
2018-01-15T01:09:06.139Z,20.40
2018-01-15T01:11:33.798Z,19.17
2018-01-15T01:14:01.453Z,20.23
2018-01-15T01:16:29.083Z,19.83
2018-01-15T01:18:57.476Z,19.77
2018-01-15T01:21:25.863Z,20.33
2018-01-15T01:26:27.320Z,19.70
2018-01-15T01:28:54.936Z,20.08
2018-01-15T01:31:22.579Z,19.73
2018-01-15T01:33:50.197Z,19.90
2018-01-15T01:36:18.595Z,19.93
2018-01-15T01:38:46.237Z,20.23
2018-01-15T01:41:13.843Z,18.70
2018-01-15T01:43:41.467Z,20.25
2018-01-15T01:46:09.116Z,20.15
2018-01-15T01:48:36.723Z,19.40
2018-01-15T01:53:38.360Z,19.90
2018-01-15T01:58:39.998Z,19.83
2018-01-15T02:01:07.629Z,20.08
2018-01-15T02:03:35.286Z,19.52
2018-01-15T02:06:02.892Z,19.80
2018-01-15T02:08:31.266Z,19.50
2018-01-15T02:10:58.882Z,20.30
2018-01-15T02:13:26.511Z,20.45
2018-01-15T02:15:54.140Z,21.55
2018-01-15T02:18:21.787Z,20.33
2018-01-15T02:20:49.399Z,19.12
2018-01-15T02:23:17.010Z,19.73
2018-01-15T02:25:44.702Z,19.63
2018-01-15T02:28:12.360Z,19.98
2018-01-15T02:30:39.990Z,18.62
2018-01-15T02:33:07.674Z,19.53
2018-01-15T02:35:35.280Z,20.80
2018-01-15T02:38:02.990Z,20.40
2018-01-15T02:40:30.622Z,19.03
2018-01-15T02:42:58.240Z,19.02
2018-01-15T02:45:25.922Z,18.35
2018-01-15T02:47:53.666Z,19.20
2018-01-15T02:50:21.326Z,18.92
2018-01-15T02:52:49.287Z,19.23
2018-01-15T02:55:16.932Z,19.80
2018-01-15T02:57:44.619Z,19.48
2018-01-15T03:00:15.540Z,19.75
2018-01-15T03:02:44.576Z,19.58
2018-01-15T03:05:12.231Z,18.75
2018-01-15T03:07:40.577Z,18.45
2018-01-15T03:10:08.218Z,18.70
2018-01-15T03:12:35.842Z,19.00
2018-01-15T03:15:03.491Z,17.48
2018-01-15T03:17:31.958Z,19.52
2018-01-15T03:19:59.582Z,18.40
2018-01-15T03:22:27.231Z,18.10
2018-01-15T03:24:54.862Z,18.48
2018-01-15T03:27:23.375Z,18.00
2018-01-15T03:29:51.103Z,17.27
2018-01-15T03:32:18.826Z,17.20
2018-01-15T03:34:46.427Z,18.35
2018-01-15T03:37:14.806Z,18.10
2018-01-15T03:39:43.180Z,18.33
2018-01-15T03:42:11.923Z,18.20
2018-01-15T03:44:39.657Z,17.48
2018-01-15T03:47:07.310Z,18.67
2018-01-15T03:49:34.926Z,19.00
2018-01-15T03:52:02.687Z,18.70
2018-01-15T03:54:30.907Z,18.90
2018-01-15T03:57:00.171Z,19.17
2018-01-15T03:59:28.669Z,17.83
2018-01-15T04:01:57.108Z,18.90
2018-01-15T04:04:24.912Z,19.17
2018-01-15T04:06:53.963Z,18.30
2018-01-15T04:09:24.282Z,18.27
2018-01-15T04:11:51.917Z,19.05
2018-01-15T04:14:20.789Z,19.10
2018-01-15T04:16:48.512Z,19.35
2018-01-15T04:19:21.498Z,19.60
2018-01-15T04:21:51.025Z,18.25
2018-01-15T04:24:20.160Z,18.12
2018-01-15T04:26:56.400Z,18.98
2018-01-15T04:29:24.705Z,18.67
2018-01-15T04:31:53.935Z,18.33
2018-01-15T04:34:28.531Z,18.80
2018-01-15T04:36:56.879Z,18.00
2018-01-15T04:39:25.892Z,19.00
2018-01-15T04:41:54.813Z,19.40
2018-01-15T04:44:22.432Z,18.50
2018-01-15T04:46:51.045Z,17.83
2018-01-15T04:49:18.735Z,18.45
2018-01-15T04:51:46.354Z,19.00
2018-01-15T04:54:14.921Z,18.70
2018-01-15T04:56:42.572Z,19.05
2018-01-15T04:59:10.820Z,19.50
2018-01-15T05:01:39.250Z,18.60
2018-01-15T05:04:07.151Z,19.48
2018-01-15T05:06:37.140Z,18.45
2018-01-15T05:09:05.621Z,18.60
2018-01-15T05:11:33.239Z,18.83
2018-01-15T05:14:00.943Z,18.20
2018-01-15T05:16:29.236Z,19.73
2018-01-15T05:21:30.970Z,20.88
2018-01-15T05:23:58.665Z,18.95
2018-01-15T05:26:27.133Z,19.20
2018-01-15T05:28:57.877Z,20.10
2018-01-15T05:31:26.332Z,19.17
2018-01-15T05:33:53.947Z,19.05
2018-01-15T05:36:21.566Z,19.55
2018-01-15T05:38:49.208Z,18.70
2018-01-15T05:41:16.899Z,18.35
2018-01-15T05:43:44.579Z,19.15
2018-01-15T05:46:12.235Z,19.33
2018-01-15T05:48:39.908Z,18.90
2018-01-15T05:51:08.605Z,19.20
2018-01-15T05:53:36.242Z,18.33
2018-01-15T05:56:03.922Z,17.42
2018-01-15T05:58:31.639Z,17.35
2018-01-15T06:01:01.046Z,18.83
2018-01-15T06:03:28.670Z,18.87
2018-01-15T06:05:56.355Z,18.67
2018-01-15T06:08:25.713Z,18.37
2018-01-15T06:10:53.363Z,19.67
2018-01-15T06:13:20.999Z,18.25
2018-01-15T06:15:48.606Z,17.05
2018-01-15T06:18:17.460Z,17.77
2018-01-15T06:20:45.059Z,18.12
2018-01-15T06:23:12.673Z,18.25
2018-01-15T06:25:40.309Z,17.60
2018-01-15T06:28:07.966Z,17.30
2018-01-15T06:30:35.588Z,18.25
2018-01-15T06:33:03.181Z,17.00
2018-01-15T06:35:30.804Z,17.53
2018-01-15T06:37:59.193Z,17.48
2018-01-15T06:40:26.890Z,16.90
2018-01-15T06:45:29.335Z,17.30
2018-01-15T06:48:00.179Z,18.00
2018-01-15T06:50:27.821Z,17.12
2018-01-15T06:52:56.219Z,18.40
2018-01-15T06:55:25.377Z,18.43
2018-01-15T06:57:54.775Z,17.50
2018-01-15T07:03:19.701Z,17.90
2018-01-15T07:05:51.584Z,17.80
2018-01-15T07:11:14.726Z,17.98
2018-01-15T07:13:43.038Z,18.10
2018-01-15T07:16:10.566Z,17.47
2018-01-15T07:18:38.079Z,18.75
2018-01-15T07:21:06.385Z,18.02
2018-01-15T07:23:33.918Z,17.83
2018-01-15T07:26:01.580Z,17.62
2018-01-15T07:28:29.086Z,17.55
2018-01-15T07:30:56.659Z,18.25
2018-01-15T07:33:24.182Z,18.25
2018-01-15T07:35:51.691Z,17.73
2018-01-15T07:38:19.299Z,18.27
2018-01-15T07:40:46.843Z,17.55
2018-01-15T07:43:14.358Z,18.65
2018-01-15T07:45:41.870Z,18.62
2018-01-15T07:48:09.467Z,17.23
2018-01-15T07:50:36.982Z,17.65
2018-01-15T07:53:04.483Z,18.37
2018-01-15T07:55:32.109Z,16.77
2018-01-15T07:57:59.649Z,17.75
2018-01-15T08:00:27.175Z,17.62
2018-01-15T08:02:54.708Z,18.08
2018-01-15T08:05:22.266Z,17.83
2018-01-15T08:07:49.778Z,18.33
2018-01-15T08:10:18.059Z,17.53
2018-01-15T08:12:45.620Z,17.83
2018-01-15T08:15:13.143Z,17.67
2018-01-15T08:17:40.652Z,17.25
2018-01-15T08:20:08.926Z,17.75
2018-01-15T08:22:37.230Z,17.35
2018-01-15T08:25:04.877Z,17.23
2018-01-15T08:27:32.424Z,17.25
2018-01-15T08:29:59.971Z,17.15
2018-01-15T08:32:27.487Z,16.70
2018-01-15T08:37:28.882Z,16.77
2018-01-15T08:39:56.485Z,16.83
2018-01-15T08:42:24.027Z,16.15
2018-01-15T08:44:51.536Z,16.80
2018-01-15T08:47:19.087Z,17.10
2018-01-15T08:49:46.626Z,16.75
2018-01-15T08:52:14.202Z,17.33
2018-01-15T08:54:41.950Z,15.80
2018-01-15T08:57:09.495Z,16.37
2018-01-15T08:59:36.994Z,16.17
2018-01-15T09:02:05.292Z,16.58
2018-01-15T09:04:32.799Z,16.67
2018-01-15T09:07:01.096Z,16.25
2018-01-15T09:09:28.641Z,17.10
2018-01-15T09:11:56.179Z,16.80
2018-01-15T09:14:23.701Z,16.25
2018-01-15T09:16:51.212Z,15.85
2018-01-15T09:19:18.735Z,15.77
2018-01-15T09:21:46.260Z,16.23
2018-01-15T09:24:13.793Z,15.65
2018-01-15T09:26:41.335Z,15.52
2018-01-15T09:29:08.860Z,15.25
2018-01-15T09:31:36.424Z,15.70
2018-01-15T09:34:03.942Z,15.15
2018-01-15T09:36:31.514Z,16.60
2018-01-15T09:38:59.019Z,15.77
2018-01-15T09:41:27.323Z,16.15
2018-01-15T09:43:55.082Z,15.70
2018-01-15T09:46:22.606Z,15.37
2018-01-15T09:48:50.114Z,15.32
2018-01-15T09:51:18.635Z,16.15
2018-01-15T09:53:46.164Z,15.20
2018-01-15T09:56:13.686Z,15.15
2018-01-15T09:58:41.248Z,14.93
2018-01-15T10:01:08.800Z,15.10
2018-01-15T10:03:36.334Z,15.48
2018-01-15T10:06:03.886Z,14.65
2018-01-15T10:08:31.423Z,14.90
2018-01-15T10:10:58.936Z,14.50
2018-01-15T10:13:26.507Z,13.82
2018-01-15T10:15:54.021Z,14.53
2018-01-15T10:18:21.527Z,13.48
2018-01-15T10:20:49.042Z,13.90
2018-01-15T10:23:16.591Z,13.77
2018-01-15T10:25:44.119Z,14.18
2018-01-15T10:28:11.677Z,13.13
2018-01-15T10:30:39.182Z,14.18
2018-01-15T10:33:06.698Z,13.27
2018-01-15T10:35:34.294Z,13.50
2018-01-15T10:38:01.811Z,14.20
2018-01-15T10:40:29.335Z,13.88
2018-01-15T10:42:57.612Z,14.13
2018-01-15T10:45:25.183Z,12.93
2018-01-15T10:47:52.736Z,13.05
2018-01-15T10:50:20.249Z,12.40
2018-01-15T10:52:47.819Z,13.43
2018-01-15T10:55:15.366Z,12.98
2018-01-15T10:57:42.914Z,13.20
2018-01-15T11:00:10.424Z,12.83
2018-01-15T11:02:37.994Z,12.30
2018-01-15T11:05:05.515Z,12.68
2018-01-15T11:07:33.026Z,12.50
2018-01-15T11:10:01.347Z,12.23
2018-01-15T11:12:28.863Z,12.87
2018-01-15T11:14:56.433Z,11.93
2018-01-15T11:17:23.945Z,11.80
2018-01-15T11:19:51.533Z,11.23
2018-01-15T11:22:19.083Z,10.93
2018-01-15T11:24:46.599Z,11.55
2018-01-15T11:27:14.166Z,11.88
2018-01-15T11:29:41.707Z,11.48
2018-01-15T11:32:09.226Z,10.90
2018-01-15T11:34:36.943Z,11.25
2018-01-15T11:37:05.253Z,11.50
2018-01-15T11:39:32.766Z,11.32
2018-01-15T11:42:00.670Z,11.00
2018-01-15T11:44:28.179Z,10.77
2018-01-15T11:46:55.686Z,11.20
2018-01-15T11:49:23.974Z,10.90
2018-01-15T11:51:51.529Z,10.77
2018-01-15T11:54:19.042Z,11.00
2018-01-15T11:56:47.129Z,10.70
2018-01-15T11:59:14.667Z,10.35
2018-01-15T12:01:42.229Z,10.40
2018-01-15T12:04:09.743Z,10.57
2018-01-15T12:06:37.262Z,10.50
2018-01-15T12:09:05.563Z,10.88
2018-01-15T12:11:33.070Z,10.48
2018-01-15T12:14:01.480Z,10.10
2018-01-15T12:16:29.001Z,11.00
2018-01-15T12:18:56.517Z,10.30
2018-01-15T12:21:24.854Z,9.73
2018-01-15T12:23:52.566Z,11.12
2018-01-15T12:26:20.106Z,10.07
2018-01-15T12:28:47.607Z,9.80
2018-01-15T12:31:15.914Z,10.13
2018-01-15T12:33:43.422Z,10.15
2018-01-15T12:36:11.930Z,9.32
2018-01-15T12:38:39.469Z,10.18
2018-01-15T12:41:07.120Z,9.75
2018-01-15T12:43:34.635Z,9.40
2018-01-15T12:46:02.144Z,9.05
2018-01-15T12:48:29.754Z,9.25
2018-01-15T12:50:57.475Z,9.10
2018-01-15T12:53:24.979Z,9.10
2018-01-15T12:55:53.247Z,8.85
2018-01-15T12:58:21.526Z,9.20
2018-01-15T13:00:49.099Z,8.38
2018-01-15T13:03:16.645Z,8.77
2018-01-15T13:05:51.106Z,8.65
2018-01-15T13:08:31.386Z,8.57
2018-01-15T13:10:58.927Z,8.68
2018-01-15T13:13:26.585Z,8.82
2018-01-15T13:15:54.118Z,9.48
2018-01-15T13:18:21.670Z,9.10
2018-01-15T13:20:49.207Z,9.20
2018-01-15T13:23:16.789Z,8.90
2018-01-15T13:25:44.295Z,8.60
2018-01-15T13:28:11.825Z,9.70
2018-01-15T13:30:39.401Z,10.15
2018-01-15T13:33:06.934Z,10.60
2018-01-15T13:35:34.476Z,9.30
2018-01-15T13:38:01.994Z,10.88
2018-01-15T13:40:29.559Z,11.07
2018-01-15T13:42:57.062Z,10.95
2018-01-15T13:45:25.366Z,11.90
2018-01-15T13:47:53.105Z,11.40
2018-01-15T13:50:20.614Z,11.68
2018-01-15T13:52:48.914Z,11.20
2018-01-15T13:55:16.451Z,11.52
2018-01-15T13:57:44.858Z,10.90
2018-01-15T14:00:12.462Z,11.85
2018-01-15T14:02:39.974Z,11.05
2018-01-15T14:05:08.256Z,12.40
2018-01-15T14:07:35.793Z,12.13
2018-01-15T14:10:03.364Z,11.95
2018-01-15T14:12:30.875Z,12.32
2018-01-15T14:14:58.386Z,12.30
2018-01-15T14:17:25.988Z,12.95
2018-01-15T14:19:53.499Z,12.70
2018-01-15T14:22:21.019Z,12.55
2018-01-15T14:24:48.619Z,12.60
2018-01-15T14:27:16.162Z,12.02
2018-01-15T14:29:44.592Z,11.50
2018-01-15T14:32:13.599Z,11.10
2018-01-15T14:34:41.263Z,12.50
2018-01-15T14:37:08.892Z,11.50
2018-01-15T14:39:36.394Z,11.02
2018-01-15T14:42:04.713Z,11.30
2018-01-15T14:44:32.835Z,10.25
2018-01-15T14:47:00.342Z,11.00
2018-01-15T14:49:27.858Z,10.40
2018-01-15T14:51:55.389Z,9.90
2018-01-15T14:54:22.933Z,10.50
2018-01-15T14:56:50.434Z,9.70
2018-01-15T14:59:18.709Z,10.60
2018-01-15T15:01:46.272Z,10.88
2018-01-15T15:04:13.823Z,10.48
2018-01-15T15:06:41.366Z,10.85
2018-01-15T15:09:08.912Z,10.93
2018-01-15T15:11:36.557Z,10.32
2018-01-15T15:14:04.112Z,10.90
2018-01-15T15:16:31.640Z,10.20
2018-01-15T15:18:59.158Z,10.48
2018-01-15T15:21:26.826Z,10.93
2018-01-15T15:23:54.328Z,9.80
2018-01-15T15:26:23.522Z,9.80
2018-01-15T15:28:51.208Z,9.48
2018-01-15T15:31:18.717Z,10.25
2018-01-15T15:33:46.215Z,9.38
2018-01-15T15:36:13.721Z,9.15
2018-01-15T15:38:41.380Z,8.80
2018-01-15T15:41:08.919Z,8.70
2018-01-15T15:43:36.466Z,8.95
2018-01-15T15:46:03.998Z,8.63
2018-01-15T15:48:31.542Z,8.23
2018-01-15T15:50:59.046Z,8.70
2018-01-15T15:53:27.770Z,8.30
2018-01-15T15:55:55.280Z,7.93
2018-01-15T15:58:22.850Z,8.30
2018-01-15T16:00:50.380Z,7.55
2018-01-15T16:03:17.890Z,8.00
2018-01-15T16:05:46.150Z,7.07
2018-01-15T16:08:14.435Z,7.53
2018-01-15T16:10:41.971Z,7.03
2018-01-15T16:13:10.516Z,7.57
2018-01-15T16:15:38.823Z,8.10
2018-01-15T16:18:06.366Z,7.20
2018-01-15T16:20:33.860Z,7.43
2018-01-15T16:23:01.451Z,7.10
2018-01-15T16:25:28.998Z,7.43
2018-01-15T16:27:56.543Z,7.20
2018-01-15T16:30:24.097Z,7.20
2018-01-15T16:32:52.557Z,6.90
2018-01-15T16:35:20.073Z,6.72
2018-01-15T16:37:47.583Z,6.28
2018-01-15T16:40:15.124Z,6.53
2018-01-15T16:42:42.639Z,6.35
2018-01-15T16:45:10.162Z,6.78
2018-01-15T16:47:37.819Z,6.37
2018-01-15T16:50:11.509Z,6.20
2018-01-15T16:52:39.007Z,5.90
2018-01-15T16:55:07.413Z,5.70
2018-01-15T16:57:34.915Z,5.77
2018-01-15T17:00:02.426Z,6.40
2018-01-15T17:02:30.047Z,6.07
2018-01-15T17:04:57.558Z,5.80
2018-01-15T17:07:25.102Z,5.50
2018-01-15T17:09:52.663Z,5.40
2018-01-15T17:12:20.309Z,6.07
2018-01-15T17:14:47.826Z,5.10
2018-01-15T17:17:16.111Z,5.10
2018-01-15T17:19:43.610Z,5.90
2018-01-15T17:22:12.750Z,5.10
2018-01-15T17:24:40.291Z,5.30
2018-01-15T17:27:07.936Z,6.07
2018-01-15T17:29:35.450Z,5.68
2018-01-15T17:32:02.963Z,5.70
2018-01-15T17:34:31.237Z,6.10
2018-01-15T17:36:59.541Z,5.90
2018-01-15T17:39:27.084Z,6.10
2018-01-15T17:41:54.589Z,7.28
2018-01-15T17:44:22.096Z,6.62
2018-01-15T17:46:49.612Z,7.25
2018-01-15T17:49:17.161Z,7.90
2018-01-15T17:51:44.684Z,7.05
2018-01-15T17:54:12.183Z,6.87
2018-01-15T17:56:39.788Z,7.70
2018-01-15T17:59:07.302Z,8.10
2018-01-15T18:01:34.812Z,8.10
2018-01-15T18:04:02.407Z,8.07
2018-01-15T18:06:29.903Z,7.90
2018-01-15T18:08:57.529Z,7.30
2018-01-15T18:11:25.034Z,7.30
2018-01-15T18:13:52.585Z,7.60
2018-01-15T18:16:20.102Z,7.95
2018-01-15T18:18:47.780Z,7.90
2018-01-15T18:21:15.290Z,7.72
2018-01-15T18:23:43.589Z,7.25
2018-01-15T18:26:11.115Z,7.78
2018-01-15T18:28:38.618Z,6.50
2018-01-15T18:31:06.943Z,6.60
2018-01-15T18:33:34.579Z,6.00
2018-01-15T18:36:02.088Z,4.90
2018-01-15T18:38:29.594Z,5.53
2018-01-15T18:40:57.200Z,6.53
2018-01-15T18:43:24.754Z,5.60
2018-01-15T18:45:52.298Z,3.95
2018-01-15T18:48:19.796Z,5.30
2018-01-15T18:50:47.324Z,4.65
2018-01-15T18:53:14.921Z,3.62
2018-01-15T18:55:42.423Z,4.32
2018-01-15T18:58:10.694Z,3.87
2018-01-15T19:00:38.199Z,3.28
2018-01-15T19:03:05.910Z,2.53
2018-01-15T19:05:33.402Z,2.25
2018-01-15T19:08:01.670Z,3.60
2018-01-15T19:10:29.993Z,3.28
2018-01-15T19:12:57.494Z,3.60
2018-01-15T19:15:25.050Z,3.22
2018-01-15T19:17:52.552Z,3.45
2018-01-15T19:20:20.067Z,3.00
2018-01-15T19:22:47.584Z,3.00
2018-01-15T19:25:15.127Z,3.10
2018-01-15T19:27:42.637Z,3.72
2018-01-15T19:30:10.915Z,2.65
2018-01-15T19:32:38.422Z,2.03
2018-01-15T19:35:11.683Z,2.28
2018-01-15T19:37:43.038Z,2.58
2018-01-15T19:40:10.566Z,2.60
2018-01-15T19:42:38.066Z,2.40
2018-01-15T19:45:11.228Z,2.72
2018-01-15T19:47:44.378Z,2.20
2018-01-15T19:50:18.264Z,2.28
2018-01-15T19:52:51.445Z,2.17
2018-01-15T19:55:25.361Z,2.00
2018-01-15T19:57:58.915Z,2.45
2018-01-15T20:00:32.090Z,2.20
2018-01-15T20:03:05.371Z,2.10
2018-01-15T20:05:38.474Z,2.60
2018-01-15T20:08:11.746Z,2.00
2018-01-15T20:10:45.012Z,2.30
2018-01-15T20:13:13.286Z,2.10
2018-01-15T20:15:40.783Z,1.75
2018-01-15T20:18:08.282Z,1.85
2018-01-15T20:20:35.788Z,1.65
2018-01-15T20:23:04.074Z,2.20
2018-01-15T20:25:32.455Z,2.00
2018-01-15T20:27:59.968Z,2.20
2018-01-15T20:30:28.243Z,1.60
2018-01-15T20:32:56.507Z,1.58
2018-01-15T20:35:24.599Z,1.77
2018-01-15T20:37:52.124Z,1.90
2018-01-15T20:40:20.064Z,1.80
2018-01-15T20:42:50.030Z,1.60
2018-01-15T20:45:19.058Z,1.77
2018-01-15T20:56:24.035Z,1.70
2018-01-15T20:58:52.421Z,1.98
2018-01-15T21:01:20.513Z,1.62
2018-01-15T21:03:48.357Z,1.90
2018-01-15T21:06:16.899Z,1.75
2018-01-15T21:08:44.416Z,1.62
2018-01-15T21:11:12.713Z,1.60
2018-01-15T21:13:40.217Z,1.60
2018-01-15T21:16:08.518Z,1.60
2018-01-15T21:18:36.027Z,2.30
2018-01-15T21:21:04.299Z,2.00
2018-01-15T21:23:31.805Z,1.83
2018-01-15T21:25:59.308Z,1.83
2018-01-15T21:28:26.802Z,2.17
2018-01-15T21:30:55.119Z,1.98
2018-01-15T21:33:22.695Z,2.15
2018-01-15T21:35:50.205Z,2.12
2018-01-15T21:38:17.790Z,1.50
2018-01-15T21:40:45.300Z,1.85
2018-01-15T21:43:12.832Z,2.05
2018-01-15T21:45:40.335Z,1.90
2018-01-15T21:48:08.598Z,2.33
2018-01-15T21:50:37.007Z,2.10
2018-01-15T21:53:04.507Z,2.60
2018-01-15T21:55:32.802Z,2.40
2018-01-15T21:58:00.314Z,2.97
2018-01-15T22:00:28.594Z,2.50
2018-01-15T22:02:56.175Z,2.42
2018-01-15T22:05:23.675Z,2.10
2018-01-15T22:07:51.175Z,2.60
2018-01-15T22:10:18.703Z,2.50
2018-01-15T22:12:46.214Z,2.37
2018-01-15T22:15:13.711Z,2.85
2018-01-15T22:17:41.311Z,2.58
2018-01-15T22:20:08.814Z,2.80
2018-01-15T22:22:37.110Z,3.22
2018-01-15T22:27:56.247Z,3.60
2018-01-15T22:30:23.899Z,3.03
2018-01-15T22:32:51.407Z,3.17
2018-01-15T22:35:18.902Z,3.60
2018-01-15T22:37:46.403Z,3.40
2018-01-15T22:40:14.670Z,3.90
2018-01-15T22:42:42.263Z,3.83
2018-01-15T22:45:09.796Z,4.12
2018-01-15T22:47:37.296Z,4.55
2018-01-15T22:50:04.866Z,4.12
2018-01-15T22:52:32.410Z,4.78
2018-01-15T22:54:59.955Z,5.93
2018-01-15T22:57:27.455Z,6.00
2018-01-15T22:59:55.758Z,6.28
2018-01-15T23:02:23.264Z,5.90
2018-01-15T23:04:51.563Z,8.32
2018-01-15T23:07:19.074Z,8.35
2018-01-15T23:09:47.347Z,7.97
2018-01-15T23:12:14.869Z,9.00
2018-01-15T23:14:43.130Z,8.52
2018-01-15T23:17:11.390Z,9.07
2018-01-15T23:19:39.668Z,9.43
2018-01-15T23:22:07.236Z,10.00
2018-01-15T23:24:34.751Z,9.38
2018-01-15T23:27:02.319Z,9.45
2018-01-15T23:29:29.873Z,10.60
2018-01-15T23:31:57.407Z,9.00
2018-01-15T23:34:24.985Z,10.98
2018-01-15T23:36:52.522Z,11.10
2018-01-15T23:39:20.026Z,11.00
2018-01-15T23:41:47.590Z,10.48
2018-01-15T23:44:15.134Z,10.93
2018-01-15T23:46:42.667Z,12.18
2018-01-15T23:49:10.174Z,10.82
2018-01-15T23:51:38.454Z,11.00
2018-01-15T23:54:05.963Z,12.02
2018-01-15T23:56:33.474Z,12.10
2018-01-15T23:59:00.986Z,12.35
